Terminal Aerodrome Forecast
Issued by NWS

Home | Current Version | Previous Version | Text Only | Print | Product List | Glossary On
Versions: 1 2 3 4 5 6 7 8 9 10 11 12 13 14 15 16 17 18 19
000
FTUS43 KLSX 051120
TAFUIN
TAF
KUIN 051120Z 0512/0612 07006KT P6SM OVC120
     FM051500 11007KT P6SM OVC040
     FM052100 11007KT P6SM VCTS OVC035CB
     FM060300 09007KT P6SM OVC030=

USA.gov is the U.S. government's official web portal to all federal, state and local government web resources and services.